Time;durP1;ratioP1;P1;durP2;ratioP2;P2;SDS_P1;SDS_P2;PMS_P1;PMS_P2;Temp;Humidity;BMP_temperature;BMP_pressure;BME280_temperature;BME280_humidity;BME280_pressure;Samples;Min_cycle;Max_cycle;Signal;HPM_P1;HPM_P2
2021/05/02 00:04:53;;;;;;;9.25;7.40;;;;;;;9.70;72.56;96633.16;10450069;28;20061;-76
2021/05/02 00:10:14;;;;;;;7.53;6.75;;;;;;;9.67;72.71;96648.34;10449082;28;20361;-76
2021/05/02 00:15:35;;;;;;;8.38;6.97;;;;;;;9.71;72.82;96650.59;10449002;28;20063;-77
2021/05/02 00:20:56;;;;;;;8.80;7.55;;;;;;;9.75;73.42;96659.19;10435260;28;20044;-76
2021/05/02 00:26:17;;;;;;;7.78;6.32;;;;;;;9.75;73.29;96643.19;10434761;28;20102;-77
2021/05/02 00:31:41;;;;;;;11.90;8.05;;;;;;;9.70;73.11;96613.66;10448340;28;20037;-76
2021/05/02 00:37:03;;;;;;;9.80;7.45;;;;;;;9.60;73.67;96607.56;10434996;28;20049;-76
2021/05/02 00:42:26;;;;;;;8.40;6.78;;;;;;;9.58;73.81;96615.09;10434486;28;20434;-76
2021/05/02 00:47:54;;;;;;;7.85;6.68;;;;;;;9.63;73.70;96627.88;10462404;28;20041;-76
2021/05/02 00:53:41;;;;;;;9.30;6.00;;;;;;;9.63;73.73;96613.94;10446733;28;20487;-76
2021/05/02 00:59:07;;;;;;;7.00;6.30;;;;;;;9.58;73.92;96601.16;10453370;28;20056;-75
2021/05/02 01:04:32;;;;;;;7.97;6.40;;;;;;;9.62;73.81;96593.00;10447347;28;20062;-76
2021/05/02 01:09:53;;;;;;;8.30;6.97;;;;;;;9.60;74.08;96601.97;10446777;28;20044;-76
2021/05/02 01:15:24;;;;;;;9.18;7.90;;;;;;;9.52;74.38;96609.91;10446991;28;20383;-76
2021/05/02 01:20:46;;;;;;;8.48;7.13;;;;;;;9.50;74.66;96598.66;10448479;28;20094;-77
2021/05/02 01:26:06;;;;;;;10.25;7.65;;;;;;;9.46;74.81;96588.03;10446278;28;20064;-76
2021/05/02 01:31:27;;;;;;;10.13;7.68;;;;;;;9.41;74.52;96578.00;10445778;28;20041;-76
2021/05/02 01:36:48;;;;;;;8.95;7.55;;;;;;;9.43;75.11;96569.75;10446067;28;20041;-75
2021/05/02 01:42:09;;;;;;;9.35;7.57;;;;;;;9.40;75.32;96571.00;10445636;28;20040;-76
2021/05/02 01:47:30;;;;;;;9.77;7.93;;;;;;;9.34;74.81;96547.66;10445331;28;20076;-76
2021/05/02 01:52:54;;;;;;;10.00;8.02;;;;;;;9.32;75.04;96536.41;10444959;28;20041;-77
2021/05/02 01:58:14;;;;;;;12.10;8.43;;;;;;;9.36;75.29;96519.91;10431236;28;20120;-76
2021/05/02 02:03:35;;;;;;;10.85;8.30;;;;;;;9.38;75.41;96501.25;10444588;28;20411;-75
2021/05/02 02:08:59;;;;;;;9.05;7.88;;;;;;;9.36;75.17;96498.38;10444397;28;20475;-76
2021/05/02 02:14:21;;;;;;;11.73;9.45;;;;;;;9.37;75.77;96485.19;10444291;28;20106;-76
2021/05/02 02:19:41;;;;;;;13.60;11.40;;;;;;;9.35;75.48;96469.06;10430647;28;20107;-76
2021/05/02 02:25:03;;;;;;;14.75;11.88;;;;;;;9.30;75.88;96475.06;10443541;28;20045;-76
2021/05/02 02:30:25;;;;;;;15.68;11.65;;;;;;;9.27;75.46;96470.72;10443479;28;20064;-76
2021/05/02 02:35:50;;;;;;;18.50;14.75;;;;;;;9.18;76.37;96469.56;10443808;28;20071;-76
2021/05/02 02:41:15;;;;;;;;;;;;;;;9.15;76.32;96470.78;10444079;28;20051;-76
2021/05/02 02:46:46;;;;;;;19.00;15.48;;;;;;;9.10;76.18;96474.72;10457093;28;20030;-76
2021/05/02 02:52:07;;;;;;;21.90;15.57;;;;;;;9.09;76.27;96495.53;10443569;28;20044;-75
2021/05/02 02:57:28;;;;;;;19.95;15.05;;;;;;;9.12;76.41;96499.88;10442949;28;20047;-76
2021/05/02 03:03:06;;;;;;;19.08;14.88;;;;;;;9.16;76.57;96505.66;10442288;28;20476;-76
2021/05/02 03:08:30;;;;;;;16.60;12.27;;;;;;;9.16;76.44;96514.00;10445020;28;20056;-75
2021/05/02 03:13:55;;;;;;;13.07;10.82;;;;;;;9.20;76.28;96516.28;10442507;28;20406;-76
2021/05/02 03:19:28;;;;;;;10.85;9.20;;;;;;;9.19;76.50;96501.66;10442057;28;20041;-76
2021/05/02 03:24:48;;;;;;;10.63;8.60;;;;;;;9.15;76.42;96501.41;10442122;28;20041;-75
2021/05/02 03:30:10;;;;;;;8.65;7.05;;;;;;;9.09;76.81;96507.41;10441786;28;20045;-76
2021/05/02 03:35:33;;;;;;;7.85;6.25;;;;;;;8.98;76.58;96513.06;10441789;28;20053;-76
2021/05/02 03:40:55;;;;;;;7.00;5.05;;;;;;;8.99;76.71;96503.34;10441472;28;20499;-75
2021/05/02 03:46:25;;;;;;;4.63;3.85;;;;;;;8.99;76.38;96525.63;10427984;28;20052;-77
2021/05/02 03:51:46;;;;;;;4.35;3.30;;;;;;;8.85;76.60;96522.78;10442568;28;20048;-75
2021/05/02 03:57:07;;;;;;;4.05;3.08;;;;;;;8.81;76.79;96528.13;10427396;28;20041;-77
2021/05/02 04:02:29;;;;;;;3.97;3.03;;;;;;;8.71;76.70;96533.88;10427066;28;20057;-75
2021/05/02 04:07:51;;;;;;;4.05;2.60;;;;;;;8.53;76.43;96546.75;10427609;28;20044;-76
2021/05/02 04:13:11;;;;;;;4.47;3.08;;;;;;;8.55;77.10;96553.16;10440862;28;20048;-77
2021/05/02 04:18:32;;;;;;;4.00;3.60;;;;;;;8.51;76.74;96563.34;10440989;28;20479;-77
2021/05/02 04:23:52;;;;;;;4.47;3.33;;;;;;;8.40;76.97;96558.53;10440524;28;20102;-77
2021/05/02 04:29:13;;;;;;;7.97;6.55;;;;;;;8.36;77.09;96577.75;10444412;28;20048;-76
2021/05/02 04:34:33;;;;;;;9.95;7.78;;;;;;;8.33;77.05;96593.59;10461311;28;20048;-75
2021/05/02 04:39:54;;;;;;;5.85;4.60;;;;;;;8.29;76.79;96616.31;10447835;28;20049;-75
2021/05/02 04:45:14;;;;;;;7.60;5.75;;;;;;;8.14;76.56;96619.59;10446926;28;20041;-76
2021/05/02 04:50:36;;;;;;;6.05;4.60;;;;;;;8.07;76.78;96631.69;10446621;28;20045;-76
2021/05/02 04:55:56;;;;;;;6.18;4.18;;;;;;;8.01;76.81;96648.00;10447506;28;20045;-77
2021/05/02 05:01:17;;;;;;;7.60;4.45;;;;;;;7.91;76.81;96644.59;10431827;28;20052;-76
2021/05/02 05:06:37;;;;;;;4.47;3.85;;;;;;;7.92;76.49;96668.31;10446619;28;20431;-76
2021/05/02 05:11:58;;;;;;;3.90;3.25;;;;;;;7.90;76.33;96680.00;10443993;28;20388;-75
2021/05/02 05:17:19;;;;;;;5.35;4.05;;;;;;;7.80;76.53;96687.72;10418573;28;20044;-75
2021/05/02 05:22:40;;;;;;;5.05;3.88;;;;;;;7.73;76.20;96697.03;10460002;28;20052;-76
2021/05/02 05:28:00;;;;;;;7.55;4.03;;;;;;;7.66;76.24;96707.03;10445883;28;20049;-74
2021/05/02 05:33:21;;;;;;;6.18;4.43;;;;;;;7.56;76.18;96703.63;10445578;28;20056;-74
2021/05/02 05:38:41;;;;;;;7.40;4.70;;;;;;;7.52;76.08;96722.81;10458795;28;20056;-74
2021/05/02 05:44:02;;;;;;;4.60;3.53;;;;;;;7.51;76.01;96729.69;10459039;28;20055;-75
2021/05/02 05:49:22;;;;;;;5.57;3.40;;;;;;;7.53;75.57;96752.06;10458467;28;20450;-74
2021/05/02 05:54:43;;;;;;;4.22;3.40;;;;;;;7.47;76.32;96746.09;10444599;28;20048;-74
2021/05/02 06:00:05;;;;;;;5.07;3.65;;;;;;;7.47;75.73;96755.16;10458070;28;20041;-75
2021/05/02 06:05:32;;;;;;;4.22;3.40;;;;;;;7.56;75.54;96778.63;10444808;28;20057;-75
2021/05/02 06:10:53;;;;;;;3.67;2.72;;;;;;;7.58;75.38;96773.19;10457628;28;20048;-73
2021/05/02 06:16:13;;;;;;;2.95;2.15;;;;;;;7.61;75.39;96791.41;10457579;28;20045;-75
2021/05/02 06:21:34;;;;;;;2.38;1.80;;;;;;;7.69;75.38;96794.72;10429909;28;20104;-75
2021/05/02 06:26:54;;;;;;;2.33;1.67;;;;;;;7.78;75.17;96804.28;10457168;28;20045;-75
2021/05/02 06:32:15;;;;;;;1.92;1.30;;;;;;;7.86;74.57;96815.91;10443288;28;20041;-74
2021/05/02 06:37:35;;;;;;;2.55;1.20;;;;;;;7.89;74.69;96831.38;10442750;28;20067;-76
2021/05/02 06:42:55;;;;;;;2.40;1.15;;;;;;;7.97;74.41;96829.13;10456624;28;20041;-74
2021/05/02 06:48:16;;;;;;;2.25;1.30;;;;;;;8.12;74.03;96847.41;10456669;28;20036;-75
2021/05/02 06:53:36;;;;;;;2.10;1.52;;;;;;;8.11;74.10;96853.56;10455317;28;20041;-75
2021/05/02 06:58:57;;;;;;;3.33;1.30;;;;;;;8.21;74.38;96863.28;10456384;28;20045;-75
2021/05/02 07:04:17;;;;;;;2.33;1.40;;;;;;;8.47;74.54;96869.75;10456181;28;20454;-75
2021/05/02 07:09:38;;;;;;;1.80;1.05;;;;;;;8.86;73.38;96886.72;10455967;28;20045;-75
2021/05/02 07:14:59;;;;;;;1.30;0.80;;;;;;;9.20;73.18;96895.69;10454958;28;20419;-75
2021/05/02 07:20:21;;;;;;;1.55;1.05;;;;;;;9.51;71.83;96911.38;10440821;28;20099;-75
2021/05/02 07:25:43;;;;;;;1.52;0.90;;;;;;;9.48;71.98;96918.19;10442939;28;20049;-74
2021/05/02 07:31:03;;;;;;;1.27;0.98;;;;;;;9.35;71.92;96925.81;10441287;28;20435;-75
2021/05/02 07:36:24;;;;;;;3.47;1.30;;;;;;;9.37;71.86;96934.31;10441529;28;20480;-75
2021/05/02 07:41:45;;;;;;;1.95;1.02;;;;;;;9.52;71.23;96952.56;10455432;28;20073;-76
2021/05/02 07:47:05;;;;;;;1.92;1.08;;;;;;;9.71;71.49;96951.56;10455586;28;20552;-75
2021/05/02 07:52:27;;;;;;;1.80;1.10;;;;;;;9.93;70.37;96966.78;10441455;28;20045;-75
2021/05/02 07:57:48;;;;;;;1.67;0.82;;;;;;;9.93;70.18;96972.34;10427281;28;20041;-76
2021/05/02 08:03:09;;;;;;;1.58;0.82;;;;;;;9.81;70.46;96985.59;10444948;28;20045;-75
2021/05/02 08:08:29;;;;;;;1.27;0.80;;;;;;;9.63;69.59;96988.03;10448923;28;20048;-75
2021/05/02 08:13:49;;;;;;;1.23;0.82;;;;;;;9.61;69.90;97001.13;10463314;28;20037;-75
2021/05/02 08:19:10;;;;;;;1.85;0.93;;;;;;;9.70;69.70;97012.16;10448504;28;20045;-76
2021/05/02 08:24:31;;;;;;;2.00;1.00;;;;;;;9.91;69.17;97019.63;10462373;28;20053;-76
2021/05/02 08:29:51;;;;;;;1.63;1.00;;;;;;;10.04;68.68;97026.66;10434483;28;20463;-76
2021/05/02 08:35:12;;;;;;;2.58;1.27;;;;;;;10.28;68.92;97035.72;10434325;28;20045;-75
2021/05/02 08:40:32;;;;;;;1.92;1.02;;;;;;;10.62;67.90;97048.09;10461751;28;20396;-75
2021/05/02 08:45:53;;;;;;;1.52;1.10;;;;;;;11.02;67.05;97046.81;10447646;28;20045;-76
2021/05/02 08:51:14;;;;;;;2.42;1.20;;;;;;;11.44;67.13;97070.00;10461220;28;20048;-76
2021/05/02 08:56:34;;;;;;;1.83;1.10;;;;;;;11.85;66.10;97072.16;10461378;28;20070;-76
2021/05/02 09:01:59;;;;;;;1.52;0.90;;;;;;;12.21;65.07;97079.59;10461133;28;20056;-75
2021/05/02 09:07:19;;;;;;;2.00;1.30;;;;;;;12.95;65.52;97083.91;10460865;28;20041;-76
2021/05/02 09:12:41;;;;;;;2.08;1.55;;;;;;;13.93;63.37;97091.19;10457889;28;20044;-78
2021/05/02 09:18:22;;;;;;;2.10;1.23;;;;;;;14.52;62.23;97088.13;10458985;28;20484;-76
2021/05/02 09:23:44;;;;;;;2.03;1.30;;;;;;;14.26;61.09;97094.03;10460923;28;20491;-77
2021/05/02 09:29:07;;;;;;;1.60;1.23;;;;;;;14.25;60.71;97105.91;10445991;28;20446;-75
2021/05/02 09:34:27;;;;;;;2.10;1.13;;;;;;;13.51;60.86;97109.63;10459358;28;20037;-75
2021/05/02 09:39:49;;;;;;;1.83;1.27;;;;;;;13.33;60.73;97112.34;10445178;28;20048;-74
2021/05/02 09:45:11;;;;;;;1.60;1.30;;;;;;;13.22;60.28;97127.94;10458670;28;20480;-76
2021/05/02 09:50:35;;;;;;;1.60;1.40;;;;;;;12.84;60.16;97133.13;10458607;28;20060;-76
2021/05/02 09:55:55;;;;;;;2.88;1.50;;;;;;;12.77;59.87;97136.25;10445378;28;20040;-75
2021/05/02 10:01:16;;;;;;;3.38;2.72;;;;;;;12.79;59.40;97145.47;10445725;28;20123;-78
2021/05/02 10:06:36;;;;;;;2.08;1.08;;;;;;;12.82;59.54;97151.88;10444665;28;20450;-75
2021/05/02 10:11:57;;;;;;;1.70;1.13;;;;;;;12.47;59.07;97157.84;10453494;28;20045;-75
2021/05/02 10:17:17;;;;;;;1.80;1.40;;;;;;;12.56;59.26;97159.72;10455284;28;20040;-75
2021/05/02 10:22:38;;;;;;;1.98;1.50;;;;;;;12.74;58.90;97160.63;10406660;28;20052;-73
2021/05/02 10:27:58;;;;;;;2.70;2.00;;;;;;;13.23;58.48;97171.44;10401265;28;20045;-73
2021/05/02 10:33:43;;;;;;;2.00;1.58;;;;;;;13.54;57.10;97179.19;10450733;28;20097;-74
2021/05/02 10:39:11;;;;;;;2.65;2.03;;;;;;;14.04;55.27;97185.69;10469926;28;20376;-74
2021/05/02 10:44:48;;;;;;;2.70;1.60;;;;;;;13.82;56.13;97185.41;10487219;28;20040;-75
2021/05/02 10:50:45;;;;;;;2.60;2.17;;;;;;;14.06;55.30;97190.66;10455877;28;20044;-74
2021/05/02 10:56:07;;;;;;;2.25;2.03;;;;;;;14.42;54.45;97200.72;10475025;28;20052;-74
2021/05/02 11:01:27;;;;;;;1.95;1.70;;;;;;;14.20;53.48;97199.72;10497255;28;20055;-75
2021/05/02 11:06:51;;;;;;;4.75;1.70;;;;;;;15.20;54.61;97204.00;10483066;28;20483;-73
2021/05/02 11:12:25;;;;;;;2.05;1.33;;;;;;;16.67;51.45;97205.38;10387415;28;20045;-74
2021/05/02 11:17:46;;;;;;;1.48;1.20;;;;;;;15.71;51.17;97196.22;10416934;28;20385;-74
2021/05/02 11:23:06;;;;;;;1.10;1.00;;;;;;;16.69;50.93;97197.00;10386435;28;20051;-73
2021/05/02 11:28:45;;;;;;;1.80;1.20;;;;;;;18.46;49.16;97213.19;10400347;28;20071;-72
2021/05/02 11:34:06;;;;;;;1.80;1.13;;;;;;;19.61;46.53;97218.34;10401689;28;20507;-73
2021/05/02 11:39:29;;;;;;;2.92;1.55;;;;;;;19.30;42.60;97207.63;10406848;28;20037;-73
2021/05/02 11:44:52;;;;;;;3.67;2.20;;;;;;;18.60;44.39;97222.03;10420892;28;20049;-76
2021/05/02 11:50:13;;;;;;;;;;;;;;;19.45;42.04;97226.41;10408011;28;20045;-72
2021/05/02 11:55:37;;;;;;;2.88;1.23;;;;;;;19.52;41.66;97247.81;10421903;28;19921;-73
2021/05/02 12:00:58;;;;;;;2.25;1.48;;;;;;;18.93;41.29;97254.06;10408571;28;20053;-73
2021/05/02 12:06:56;;;;;;;1.00;0.77;;;;;;;18.74;40.26;97258.50;10422008;28;20060;-74
2021/05/02 12:12:17;;;;;;;1.40;0.70;;;;;;;18.39;40.80;97257.50;10404734;28;20507;-74
2021/05/02 12:17:51;;;;;;;1.40;0.50;;;;;;;18.15;39.86;97253.97;10410096;28;20048;-74
2021/05/02 12:23:12;;;;;;;0.50;0.40;;;;;;;17.69;39.90;97268.78;10499793;28;20041;-73
2021/05/02 12:28:32;;;;;;;0.85;0.40;;;;;;;17.82;39.56;97283.28;10485716;28;20075;-74
2021/05/02 12:33:55;;;;;;;0.40;0.30;;;;;;;17.40;39.27;97289.69;10485648;28;20099;-73
2021/05/02 12:39:16;;;;;;;0.55;0.30;;;;;;;17.06;39.54;97296.94;10455985;28;20479;-74
2021/05/02 12:44:38;;;;;;;0.73;0.40;;;;;;;17.55;39.32;97293.69;10447430;28;20045;-73
2021/05/02 12:50:02;;;;;;;0.88;0.38;;;;;;;16.93;39.38;97297.91;10446835;28;20045;-74
2021/05/02 12:55:26;;;;;;;1.02;0.50;;;;;;;15.91;40.09;97310.94;10473753;28;20045;-74
2021/05/02 13:00:55;;;;;;;2.70;0.40;;;;;;;14.80;41.54;97335.81;10446724;28;20103;-73
2021/05/02 13:06:16;;;;;;;2.38;0.85;;;;;;;13.68;42.25;97355.81;10446917;28;20496;-74
2021/05/02 13:11:38;;;;;;;2.85;2.55;;;;;;;13.52;43.67;97377.47;10460566;28;20041;-74
2021/05/02 13:16:59;;;;;;;4.22;3.80;;;;;;;13.76;45.24;97373.03;10432920;28;20041;-73
2021/05/02 13:22:24;;;;;;;5.80;5.20;;;;;;;14.10;45.03;97376.09;10445969;28;20045;-73
2021/05/02 13:27:50;;;;;;;7.72;6.93;;;;;;;14.51;44.67;97389.97;10445707;28;20083;-73
2021/05/02 13:33:16;;;;;;;9.07;7.70;;;;;;;14.68;44.56;97380.22;10445427;28;20045;-74
2021/05/02 13:38:37;;;;;;;9.20;7.90;;;;;;;14.82;44.57;97397.69;10445205;28;20095;-73
2021/05/02 13:44:13;;;;;;;9.77;7.95;;;;;;;15.10;44.43;97407.41;10459096;28;20479;-74
2021/05/02 13:49:34;;;;;;;7.85;6.97;;;;;;;15.00;44.35;97426.63;10445907;28;20053;-74
2021/05/02 13:54:58;;;;;;;8.52;7.25;;;;;;;15.07;44.67;97431.19;10447379;28;20110;-73
2021/05/02 14:00:18;;;;;;;10.65;7.45;;;;;;;15.19;44.38;97431.00;10482504;28;20044;-73
2021/05/02 14:05:38;;;;;;;8.88;7.15;;;;;;;15.44;44.29;97427.88;10457400;28;20052;-74
2021/05/02 14:11:00;;;;;;;7.18;6.47;;;;;;;15.74;43.37;97442.56;10431671;28;20545;-74
2021/05/02 14:16:21;;;;;;;6.82;5.85;;;;;;;15.37;43.38;97428.97;10444065;28;20049;-73
2021/05/02 14:21:42;;;;;;;5.80;4.70;;;;;;;15.26;43.60;97435.53;10443342;28;20041;-74
2021/05/02 14:27:02;;;;;;;3.33;2.80;;;;;;;15.36;43.54;97449.31;10443330;28;20597;-73
2021/05/02 14:32:23;;;;;;;2.67;2.35;;;;;;;15.38;43.25;97441.69;10442726;28;20041;-73
2021/05/02 14:37:47;;;;;;;3.55;2.00;;;;;;;15.22;43.34;97443.75;10456897;28;20044;-74
2021/05/02 14:43:07;;;;;;;2.05;1.50;;;;;;;15.21;43.00;97450.75;10456424;28;20431;-73
2021/05/02 14:48:28;;;;;;;1.95;1.20;;;;;;;14.88;43.00;97454.19;10460104;28;20483;-73
2021/05/02 14:53:48;;;;;;;1.65;1.25;;;;;;;14.15;43.15;97456.31;10428347;28;20404;-73
2021/05/02 14:59:09;;;;;;;2.00;1.20;;;;;;;13.66;43.93;97459.50;10428237;28;20040;-73
2021/05/02 15:04:29;;;;;;;1.73;1.10;;;;;;;14.21;43.88;97460.16;10442378;28;20503;-73
2021/05/02 15:09:50;;;;;;;2.00;1.35;;;;;;;14.57;43.67;97463.25;10455644;28;20040;-74
2021/05/02 15:15:12;;;;;;;1.80;1.50;;;;;;;14.53;43.25;97469.41;10441108;28;20684;-73
2021/05/02 15:20:32;;;;;;;2.65;1.80;;;;;;;14.21;43.57;97487.50;10441811;28;20041;-74
2021/05/02 15:25:52;;;;;;;2.67;2.20;;;;;;;13.47;43.95;97505.50;10441603;28;20103;-73
2021/05/02 15:31:18;;;;;;;2.60;2.08;;;;;;;12.92;44.44;97510.94;10455098;28;20045;-75
2021/05/02 15:36:38;;;;;;;2.30;1.88;;;;;;;12.58;44.82;97518.91;10442504;28;20095;-76
2021/05/02 15:41:59;;;;;;;2.85;2.50;;;;;;;12.39;45.15;97524.09;10455901;28;20044;-75
2021/05/02 15:47:20;;;;;;;3.25;2.67;;;;;;;12.10;45.50;97527.34;10442075;28;20121;-76
2021/05/02 15:52:40;;;;;;;3.13;2.70;;;;;;;11.97;45.69;97528.72;10455430;28;20037;-76
2021/05/02 15:58:01;;;;;;;2.72;2.45;;;;;;;11.95;45.65;97531.38;10441118;28;20479;-75
2021/05/02 16:03:21;;;;;;;3.15;2.50;;;;;;;11.78;46.16;97537.34;10441271;28;20057;-75
2021/05/02 16:08:42;;;;;;;3.17;2.53;;;;;;;11.66;46.35;97524.06;10454947;28;20476;-75
2021/05/02 16:14:02;;;;;;;4.85;3.05;;;;;;;11.67;46.26;97533.91;10440595;28;20091;-75
2021/05/02 16:19:26;;;;;;;5.15;3.00;;;;;;;11.63;46.70;97536.47;10440744;28;20430;-75
2021/05/02 16:24:46;;;;;;;4.03;3.35;;;;;;;11.62;47.15;97523.84;10459145;28;20106;-75
2021/05/02 16:30:09;;;;;;;3.70;2.97;;;;;;;11.80;46.68;97534.69;10448096;28;20044;-74
2021/05/02 16:35:29;;;;;;;4.28;3.10;;;;;;;11.66;46.92;97531.72;10461481;28;20094;-74
2021/05/02 16:40:50;;;;;;;3.83;3.38;;;;;;;11.71;46.82;97545.34;10447542;28;20473;-74
2021/05/02 16:46:10;;;;;;;3.65;2.97;;;;;;;11.54;47.27;97542.91;10447676;28;20421;-75
2021/05/02 16:51:31;;;;;;;3.45;2.08;;;;;;;11.42;47.23;97554.09;10433083;28;20052;-75
2021/05/02 16:56:52;;;;;;;3.33;2.30;;;;;;;11.14;47.56;97561.44;10461091;28;20087;-74
2021/05/02 17:02:12;;;;;;;3.13;2.17;;;;;;;10.83;48.46;97577.63;10446301;28;20053;-74
2021/05/02 17:07:35;;;;;;;3.28;2.42;;;;;;;10.66;48.48;97583.50;10446769;28;20041;-74
2021/05/02 17:12:56;;;;;;;3.72;1.88;;;;;;;10.47;48.72;97579.53;10460105;28;20041;-74
2021/05/02 17:18:16;;;;;;;2.10;1.45;;;;;;;10.42;48.70;97586.19;10460236;28;20048;-75
2021/05/02 17:23:37;;;;;;;2.85;1.77;;;;;;;10.43;48.56;97589.72;10446181;28;20044;-75
2021/05/02 17:28:57;;;;;;;2.03;1.42;;;;;;;10.48;48.52;97591.44;10431918;28;20491;-76
2021/05/02 17:34:18;;;;;;;2.25;1.50;;;;;;;10.48;48.98;97592.16;10444981;28;20045;-73
2021/05/02 17:39:38;;;;;;;3.45;1.25;;;;;;;10.47;48.74;97596.28;10460223;28;20049;-75
2021/05/02 17:44:58;;;;;;;3.20;1.65;;;;;;;10.44;48.52;97608.66;10445438;28;20103;-74
2021/05/02 17:50:20;;;;;;;3.40;1.55;;;;;;;10.25;49.11;97611.56;10445080;28;20041;-76
2021/05/02 17:55:40;;;;;;;1.92;1.38;;;;;;;10.13;48.93;97630.97;10444833;28;20048;-74
2021/05/02 18:01:00;;;;;;;2.53;1.40;;;;;;;10.02;49.12;97626.75;10458283;28;20040;-73
2021/05/02 18:06:24;;;;;;;2.40;1.60;;;;;;;9.90;49.31;97625.94;10457741;28;20412;-73
2021/05/02 18:11:48;;;;;;;3.33;2.08;;;;;;;9.77;49.33;97631.28;10457995;28;20041;-76
2021/05/02 18:17:08;;;;;;;3.22;1.50;;;;;;;9.67;49.52;97636.91;10388943;28;20369;-74
2021/05/02 18:22:30;;;;;;;2.10;1.60;;;;;;;9.49;49.88;97641.19;10402564;28;20046;-75
2021/05/02 18:27:50;;;;;;;2.10;1.42;;;;;;;9.32;50.06;97650.47;10402202;28;20044;-74
2021/05/02 18:33:11;;;;;;;3.35;1.65;;;;;;;9.21;50.34;97660.16;10402142;28;20037;-74
2021/05/02 18:38:31;;;;;;;2.35;1.70;;;;;;;9.13;50.66;97659.59;10388091;28;20404;-74
2021/05/02 18:43:51;;;;;;;3.05;1.88;;;;;;;9.00;51.66;97658.00;10415720;28;20052;-73
2021/05/02 18:49:11;;;;;;;2.50;1.92;;;;;;;8.81;50.84;97667.06;10401023;28;20052;-74
2021/05/02 18:54:32;;;;;;;3.92;2.20;;;;;;;8.60;51.49;97673.19;10415140;28;20033;-75
2021/05/02 18:59:52;;;;;;;3.60;1.90;;;;;;;8.40;51.31;97685.63;10401338;28;20041;-74
2021/05/02 19:05:13;;;;;;;4.32;2.20;;;;;;;8.21;51.88;97694.59;10414616;28;20080;-74
2021/05/02 19:10:34;;;;;;;3.08;2.17;;;;;;;8.06;52.32;97694.84;10415780;28;20527;-75
2021/05/02 19:15:55;;;;;;;5.30;3.30;;;;;;;7.91;52.92;97700.59;10414364;28;20044;-74
2021/05/02 19:21:15;;;;;;;4.65;2.85;;;;;;;7.79;52.52;97705.22;10414595;28;20041;-74
2021/05/02 19:26:36;;;;;;;3.00;2.40;;;;;;;7.67;54.25;97699.47;10414524;28;20045;-74
2021/05/02 19:31:56;;;;;;;4.93;2.53;;;;;;;7.51;53.36;97709.31;10414154;28;20037;-75
2021/05/02 19:37:17;;;;;;;6.32;2.80;;;;;;;7.39;53.70;97720.19;10386728;28;20384;-74
2021/05/02 19:42:37;;;;;;;5.22;3.00;;;;;;;7.27;55.05;97724.81;10414128;28;20056;-75
2021/05/02 19:47:58;;;;;;;4.88;3.35;;;;;;;7.12;55.95;97722.91;10400165;28;20365;-74
2021/05/02 19:53:18;;;;;;;4.25;3.20;;;;;;;7.01;55.38;97732.47;10399841;28;20052;-75
2021/05/02 19:58:41;;;;;;;5.13;3.05;;;;;;;6.92;55.00;97727.56;10416943;28;20041;-75
2021/05/02 20:04:02;;;;;;;4.55;3.20;;;;;;;6.86;55.52;97732.66;10408008;28;20569;-76
2021/05/02 20:09:22;;;;;;;4.55;3.22;;;;;;;6.79;55.93;97736.22;10407663;28;20048;-75
2021/05/02 20:14:43;;;;;;;5.90;3.55;;;;;;;6.70;56.23;97739.63;10407400;28;20049;-75
2021/05/02 20:20:04;;;;;;;4.60;2.95;;;;;;;6.66;56.91;97736.53;10407300;28;20049;-75
2021/05/02 20:25:25;;;;;;;5.70;3.47;;;;;;;6.60;57.00;97745.09;10407436;28;20504;-77
2021/05/02 20:30:46;;;;;;;9.38;3.92;;;;;;;6.45;58.05;97745.94;10406802;28;20468;-74
2021/05/02 20:36:11;;;;;;;4.50;3.17;;;;;;;6.40;57.77;97746.91;10420558;28;20049;-74
2021/05/02 20:41:33;;;;;;;5.75;3.35;;;;;;;6.37;57.60;97748.06;10420643;28;20056;-74
2021/05/02 20:46:53;;;;;;;5.50;3.28;;;;;;;6.31;58.57;97753.81;10421278;28;20045;-74
2021/05/02 20:52:14;;;;;;;4.38;3.20;;;;;;;6.27;58.87;97756.28;10420049;28;20476;-74
2021/05/02 20:57:34;;;;;;;6.15;3.67;;;;;;;6.26;58.50;97767.91;10419858;28;20048;-74
2021/05/02 21:02:55;;;;;;;5.70;3.45;;;;;;;6.21;59.25;97766.09;10405772;28;20072;-74
2021/05/02 21:08:16;;;;;;;6.22;3.97;;;;;;;6.15;58.76;97773.91;10432929;28;20041;-74
2021/05/02 21:13:36;;;;;;;4.90;3.05;;;;;;;6.06;59.12;97777.28;10419191;28;20715;-74
2021/05/02 21:18:58;;;;;;;5.00;2.78;;;;;;;6.02;58.92;97783.22;10432825;28;20037;-74
2021/05/02 21:24:18;;;;;;;4.38;2.88;;;;;;;5.99;59.31;97789.91;10404847;28;20045;-74
2021/05/02 21:29:39;;;;;;;3.90;2.40;;;;;;;5.99;59.47;97796.16;10404998;28;20042;-74
2021/05/02 21:35:00;;;;;;;3.53;2.10;;;;;;;6.00;59.27;97796.91;10418407;28;20404;-74
2021/05/02 21:40:20;;;;;;;3.17;2.08;;;;;;;6.03;59.37;97804.09;10404507;28;20107;-74
2021/05/02 21:45:41;;;;;;;4.03;2.00;;;;;;;6.05;59.44;97804.25;10404087;28;20049;-74
2021/05/02 21:51:01;;;;;;;4.35;2.13;;;;;;;6.15;59.61;97798.84;10403915;28;20041;-74
2021/05/02 21:56:22;;;;;;;3.50;2.30;;;;;;;6.22;59.26;97807.09;10403690;28;20095;-73
2021/05/02 22:01:42;;;;;;;3.00;1.88;;;;;;;6.25;59.76;97816.31;10389955;28;20049;-73
2021/05/02 22:07:02;;;;;;;3.33;2.20;;;;;;;6.11;59.24;97806.81;10403742;28;20053;-73
2021/05/02 22:12:23;;;;;;;3.70;2.20;;;;;;;5.98;59.29;97822.41;10416930;28;20443;-74
2021/05/02 22:17:43;;;;;;;2.90;1.98;;;;;;;5.91;59.84;97819.66;10389381;28;20041;-74
2021/05/02 22:23:04;;;;;;;2.88;2.10;;;;;;;5.79;59.84;97824.09;10402602;28;20061;-74
2021/05/02 22:28:24;;;;;;;3.22;2.10;;;;;;;5.67;60.57;97832.09;10388720;28;20050;-74
2021/05/02 22:33:45;;;;;;;4.18;2.28;;;;;;;5.58;59.98;97838.97;10402072;28;20048;-74
2021/05/02 22:39:06;;;;;;;6.10;2.10;;;;;;;5.49;60.29;97838.81;10388561;28;20374;-74
2021/05/02 22:44:26;;;;;;;5.50;2.22;;;;;;;5.37;61.22;97833.69;10402040;28;20111;-74
2021/05/02 22:49:47;;;;;;;7.22;2.30;;;;;;;5.31;60.81;97847.00;10415343;28;20037;-74
2021/05/02 22:55:08;;;;;;;3.75;2.03;;;;;;;5.26;60.69;97849.94;10387883;28;20042;-74
2021/05/02 23:00:35;;;;;;;5.53;2.13;;;;;;;5.19;61.62;97840.34;10387675;28;20053;-73
2021/05/02 23:05:56;;;;;;;3.33;2.28;;;;;;;5.16;61.73;97849.78;10414727;28;20066;-74
2021/05/02 23:11:17;;;;;;;5.72;2.03;;;;;;;5.14;61.10;97855.13;10400888;28;20048;-73
2021/05/02 23:16:37;;;;;;;2.78;1.77;;;;;;;5.15;61.89;97864.91;10401017;28;20046;-74
2021/05/02 23:21:58;;;;;;;2.90;2.08;;;;;;;5.19;61.70;97862.50;10400996;28;20392;-74
2021/05/02 23:27:19;;;;;;;4.15;1.85;;;;;;;5.36;61.54;97859.88;10386866;28;20476;-74
2021/05/02 23:32:40;;;;;;;2.72;1.60;;;;;;;5.49;61.32;97856.16;10400215;28;20050;-74
2021/05/02 23:38:03;;;;;;;3.95;1.83;;;;;;;5.66;61.05;97863.88;10414460;28;20930;-74
2021/05/02 23:43:23;;;;;;;3.03;1.95;;;;;;;5.81;61.29;97863.81;10400863;28;20076;-73
2021/05/02 23:48:46;;;;;;;4.68;2.00;;;;;;;5.93;61.38;97869.72;10400524;28;20124;-74
2021/05/02 23:54:06;;;;;;;2.38;1.67;;;;;;;6.01;60.98;97871.16;10372820;28;20034;-74
2021/05/02 23:59:27;;;;;;;2.50;1.45;;;;;;;6.13;61.20;97870.72;10413908;28;20054;-74
